sensor_id;sensor_type;location;lat;lon;timestamp;temperature;humidity
51500;DHT22;39101;53.478;6.158;2022-07-22T00:01:19;15.60;99.90
51500;DHT22;39101;53.478;6.158;2022-07-22T00:03:45;15.70;99.90
51500;DHT22;39101;53.478;6.158;2022-07-22T00:06:11;15.70;99.90
51500;DHT22;39101;53.478;6.158;2022-07-22T00:08:37;15.70;99.90
51500;DHT22;39101;53.478;6.158;2022-07-22T00:11:03;15.60;99.90
51500;DHT22;39101;53.478;6.158;2022-07-22T00:13:29;15.70;99.90
51500;DHT22;39101;53.478;6.158;2022-07-22T00:15:54;15.70;99.90
51500;DHT22;39101;53.478;6.158;2022-07-22T00:18:20;15.60;99.90
51500;DHT22;39101;53.478;6.158;2022-07-22T00:20:46;15.60;99.90
51500;DHT22;39101;53.478;6.158;2022-07-22T00:23:12;15.60;99.90
51500;DHT22;39101;53.478;6.158;2022-07-22T00:25:37;15.60;99.90
51500;DHT22;39101;53.478;6.158;2022-07-22T00:28:03;15.60;99.90
51500;DHT22;39101;53.478;6.158;2022-07-22T00:30:29;15.60;99.90
51500;DHT22;39101;53.478;6.158;2022-07-22T00:32:54;15.60;99.90
51500;DHT22;39101;53.478;6.158;2022-07-22T00:35:20;15.60;99.90
51500;DHT22;39101;53.478;6.158;2022-07-22T00:37:46;15.60;99.90
51500;DHT22;39101;53.478;6.158;2022-07-22T00:40:12;15.60;99.90
51500;DHT22;39101;53.478;6.158;2022-07-22T00:42:37;15.60;99.90
51500;DHT22;39101;53.478;6.158;2022-07-22T00:45:04;15.60;99.90
51500;DHT22;39101;53.478;6.158;2022-07-22T00:47:30;15.60;99.90
51500;DHT22;39101;53.478;6.158;2022-07-22T00:49:56;15.60;99.90
51500;DHT22;39101;53.478;6.158;2022-07-22T00:52:21;15.60;99.90
51500;DHT22;39101;53.478;6.158;2022-07-22T00:54:47;15.60;99.90
51500;DHT22;39101;53.478;6.158;2022-07-22T00:57:13;15.60;99.90
51500;DHT22;39101;53.478;6.158;2022-07-22T00:59:39;15.60;99.90
51500;DHT22;39101;53.478;6.158;2022-07-22T01:02:05;15.60;99.90
51500;DHT22;39101;53.478;6.158;2022-07-22T01:04:31;15.60;99.90
51500;DHT22;39101;53.478;6.158;2022-07-22T01:06:57;15.60;99.90
51500;DHT22;39101;53.478;6.158;2022-07-22T01:09:22;15.60;99.90
51500;DHT22;39101;53.478;6.158;2022-07-22T01:11:48;15.60;99.90
51500;DHT22;39101;53.478;6.158;2022-07-22T01:14:14;15.60;99.90
51500;DHT22;39101;53.478;6.158;2022-07-22T01:16:39;15.60;99.90
51500;DHT22;39101;53.478;6.158;2022-07-22T01:19:05;15.60;99.90
51500;DHT22;39101;53.478;6.158;2022-07-22T01:21:31;15.60;99.90
51500;DHT22;39101;53.478;6.158;2022-07-22T01:23:57;15.60;99.90
51500;DHT22;39101;53.478;6.158;2022-07-22T01:26:23;15.60;99.90
51500;DHT22;39101;53.478;6.158;2022-07-22T01:28:50;15.50;99.90
51500;DHT22;39101;53.478;6.158;2022-07-22T01:31:15;15.60;99.90
51500;DHT22;39101;53.478;6.158;2022-07-22T01:33:41;15.60;99.90
51500;DHT22;39101;53.478;6.158;2022-07-22T01:36:08;15.60;99.90
51500;DHT22;39101;53.478;6.158;2022-07-22T01:38:33;15.60;99.90
51500;DHT22;39101;53.478;6.158;2022-07-22T01:40:59;15.60;99.90
51500;DHT22;39101;53.478;6.158;2022-07-22T01:43:25;15.60;99.90
51500;DHT22;39101;53.478;6.158;2022-07-22T01:45:52;15.60;99.90
51500;DHT22;39101;53.478;6.158;2022-07-22T01:48:19;15.60;99.90
51500;DHT22;39101;53.478;6.158;2022-07-22T01:50:45;15.50;99.90
51500;DHT22;39101;53.478;6.158;2022-07-22T01:53:11;15.50;99.90
51500;DHT22;39101;53.478;6.158;2022-07-22T01:55:38;15.60;99.90
51500;DHT22;39101;53.478;6.158;2022-07-22T01:58:04;15.60;99.90
51500;DHT22;39101;53.478;6.158;2022-07-22T02:00:32;15.60;99.90
51500;DHT22;39101;53.478;6.158;2022-07-22T02:02:57;15.50;99.90
51500;DHT22;39101;53.478;6.158;2022-07-22T02:05:23;15.50;99.90
51500;DHT22;39101;53.478;6.158;2022-07-22T02:07:49;15.50;99.90
51500;DHT22;39101;53.478;6.158;2022-07-22T02:10:15;15.50;99.90
51500;DHT22;39101;53.478;6.158;2022-07-22T02:12:40;15.50;99.90
51500;DHT22;39101;53.478;6.158;2022-07-22T02:15:06;15.60;99.90
51500;DHT22;39101;53.478;6.158;2022-07-22T02:17:34;15.50;99.90
51500;DHT22;39101;53.478;6.158;2022-07-22T02:20:00;15.50;99.90
51500;DHT22;39101;53.478;6.158;2022-07-22T02:22:26;15.50;99.90
51500;DHT22;39101;53.478;6.158;2022-07-22T02:24:52;15.50;99.90
51500;DHT22;39101;53.478;6.158;2022-07-22T02:27:18;15.40;99.90
51500;DHT22;39101;53.478;6.158;2022-07-22T02:29:43;15.40;99.90
51500;DHT22;39101;53.478;6.158;2022-07-22T02:32:09;15.40;99.90
51500;DHT22;39101;53.478;6.158;2022-07-22T02:34:35;15.40;99.90
51500;DHT22;39101;53.478;6.158;2022-07-22T02:37:01;15.40;99.90
51500;DHT22;39101;53.478;6.158;2022-07-22T02:39:26;15.40;99.90
51500;DHT22;39101;53.478;6.158;2022-07-22T02:41:52;15.40;99.90
51500;DHT22;39101;53.478;6.158;2022-07-22T02:44:18;15.40;99.90
51500;DHT22;39101;53.478;6.158;2022-07-22T02:46:43;15.40;99.90
51500;DHT22;39101;53.478;6.158;2022-07-22T02:49:09;15.40;99.90
51500;DHT22;39101;53.478;6.158;2022-07-22T02:51:35;15.40;99.90
51500;DHT22;39101;53.478;6.158;2022-07-22T02:54:01;15.30;99.90
51500;DHT22;39101;53.478;6.158;2022-07-22T02:56:27;15.40;99.90
51500;DHT22;39101;53.478;6.158;2022-07-22T02:58:53;15.30;99.90
51500;DHT22;39101;53.478;6.158;2022-07-22T03:01:20;15.40;99.90
51500;DHT22;39101;53.478;6.158;2022-07-22T03:03:46;15.30;99.90
51500;DHT22;39101;53.478;6.158;2022-07-22T03:06:12;15.40;99.90
51500;DHT22;39101;53.478;6.158;2022-07-22T03:08:39;15.40;99.90
51500;DHT22;39101;53.478;6.158;2022-07-22T03:11:05;15.40;99.90
51500;DHT22;39101;53.478;6.158;2022-07-22T03:13:31;15.30;99.90
51500;DHT22;39101;53.478;6.158;2022-07-22T03:15:57;15.30;99.90
51500;DHT22;39101;53.478;6.158;2022-07-22T03:18:22;15.30;99.90
51500;DHT22;39101;53.478;6.158;2022-07-22T03:20:48;15.20;99.90
51500;DHT22;39101;53.478;6.158;2022-07-22T03:23:14;15.20;99.90
51500;DHT22;39101;53.478;6.158;2022-07-22T03:25:40;15.20;99.90
51500;DHT22;39101;53.478;6.158;2022-07-22T03:28:06;15.20;99.90
51500;DHT22;39101;53.478;6.158;2022-07-22T03:30:32;15.20;99.90
51500;DHT22;39101;53.478;6.158;2022-07-22T03:32:58;15.20;99.90
51500;DHT22;39101;53.478;6.158;2022-07-22T03:35:24;15.20;99.90
51500;DHT22;39101;53.478;6.158;2022-07-22T03:37:50;15.20;99.90
51500;DHT22;39101;53.478;6.158;2022-07-22T03:40:15;15.20;99.90
51500;DHT22;39101;53.478;6.158;2022-07-22T03:42:41;15.20;99.90
51500;DHT22;39101;53.478;6.158;2022-07-22T03:45:08;15.20;99.90
51500;DHT22;39101;53.478;6.158;2022-07-22T03:47:34;15.20;99.90
51500;DHT22;39101;53.478;6.158;2022-07-22T03:49:59;15.10;99.90
51500;DHT22;39101;53.478;6.158;2022-07-22T03:52:27;15.10;99.90
51500;DHT22;39101;53.478;6.158;2022-07-22T03:54:53;15.10;99.90
51500;DHT22;39101;53.478;6.158;2022-07-22T03:57:19;15.10;99.90
51500;DHT22;39101;53.478;6.158;2022-07-22T03:59:45;15.10;99.90
51500;DHT22;39101;53.478;6.158;2022-07-22T04:02:11;15.20;99.90
51500;DHT22;39101;53.478;6.158;2022-07-22T04:04:37;15.20;99.90
51500;DHT22;39101;53.478;6.158;2022-07-22T04:07:02;15.10;99.90
51500;DHT22;39101;53.478;6.158;2022-07-22T04:09:28;15.10;99.90
51500;DHT22;39101;53.478;6.158;2022-07-22T04:11:54;15.10;99.90
51500;DHT22;39101;53.478;6.158;2022-07-22T04:14:19;15.10;99.90
51500;DHT22;39101;53.478;6.158;2022-07-22T04:16:45;15.20;99.90
51500;DHT22;39101;53.478;6.158;2022-07-22T04:19:11;15.20;99.90
51500;DHT22;39101;53.478;6.158;2022-07-22T04:21:37;15.10;99.90
51500;DHT22;39101;53.478;6.158;2022-07-22T04:24:03;15.20;99.90
51500;DHT22;39101;53.478;6.158;2022-07-22T04:26:29;15.20;99.90
51500;DHT22;39101;53.478;6.158;2022-07-22T04:28:55;15.10;99.90
51500;DHT22;39101;53.478;6.158;2022-07-22T04:31:21;15.10;99.90
51500;DHT22;39101;53.478;6.158;2022-07-22T04:33:46;15.20;99.90
51500;DHT22;39101;53.478;6.158;2022-07-22T04:36:12;15.20;99.90
51500;DHT22;39101;53.478;6.158;2022-07-22T04:38:38;15.20;99.90
51500;DHT22;39101;53.478;6.158;2022-07-22T04:41:04;15.20;99.90
51500;DHT22;39101;53.478;6.158;2022-07-22T04:43:29;15.20;99.90
51500;DHT22;39101;53.478;6.158;2022-07-22T04:45:55;15.20;99.90
51500;DHT22;39101;53.478;6.158;2022-07-22T04:48:24;15.20;99.90
51500;DHT22;39101;53.478;6.158;2022-07-22T04:50:50;15.20;99.90
51500;DHT22;39101;53.478;6.158;2022-07-22T04:53:16;15.20;99.90
51500;DHT22;39101;53.478;6.158;2022-07-22T04:55:41;15.20;99.90
51500;DHT22;39101;53.478;6.158;2022-07-22T04:58:07;15.20;99.90
51500;DHT22;39101;53.478;6.158;2022-07-22T05:00:33;15.20;99.90
51500;DHT22;39101;53.478;6.158;2022-07-22T05:02:59;15.20;99.90
51500;DHT22;39101;53.478;6.158;2022-07-22T05:05:25;15.20;99.90
51500;DHT22;39101;53.478;6.158;2022-07-22T05:07:50;15.20;99.90
51500;DHT22;39101;53.478;6.158;2022-07-22T05:10:16;15.20;99.90
51500;DHT22;39101;53.478;6.158;2022-07-22T05:12:42;15.30;99.90
51500;DHT22;39101;53.478;6.158;2022-07-22T05:15:08;15.20;99.90
51500;DHT22;39101;53.478;6.158;2022-07-22T05:17:34;15.30;99.90
51500;DHT22;39101;53.478;6.158;2022-07-22T05:20:02;15.30;99.90
51500;DHT22;39101;53.478;6.158;2022-07-22T05:22:29;15.30;99.90
51500;DHT22;39101;53.478;6.158;2022-07-22T05:24:54;15.30;99.90
51500;DHT22;39101;53.478;6.158;2022-07-22T05:27:20;15.30;99.90
51500;DHT22;39101;53.478;6.158;2022-07-22T05:29:46;15.40;99.90
51500;DHT22;39101;53.478;6.158;2022-07-22T05:32:11;15.30;99.90
51500;DHT22;39101;53.478;6.158;2022-07-22T05:34:37;15.40;99.90
51500;DHT22;39101;53.478;6.158;2022-07-22T05:37:03;15.30;99.90
51500;DHT22;39101;53.478;6.158;2022-07-22T05:39:29;15.40;99.90
51500;DHT22;39101;53.478;6.158;2022-07-22T05:41:55;15.30;99.90
51500;DHT22;39101;53.478;6.158;2022-07-22T05:44:20;15.40;99.90
51500;DHT22;39101;53.478;6.158;2022-07-22T05:46:46;15.40;99.90
51500;DHT22;39101;53.478;6.158;2022-07-22T05:49:11;15.40;99.90
51500;DHT22;39101;53.478;6.158;2022-07-22T05:51:37;15.40;99.90
51500;DHT22;39101;53.478;6.158;2022-07-22T05:54:03;15.40;99.90
51500;DHT22;39101;53.478;6.158;2022-07-22T05:56:29;15.50;99.90
51500;DHT22;39101;53.478;6.158;2022-07-22T05:58:55;15.50;99.90
51500;DHT22;39101;53.478;6.158;2022-07-22T06:01:24;15.50;99.90
51500;DHT22;39101;53.478;6.158;2022-07-22T06:03:50;15.40;99.90
51500;DHT22;39101;53.478;6.158;2022-07-22T06:06:16;15.40;99.90
51500;DHT22;39101;53.478;6.158;2022-07-22T06:08:42;15.50;99.90
51500;DHT22;39101;53.478;6.158;2022-07-22T06:11:07;15.50;99.90
51500;DHT22;39101;53.478;6.158;2022-07-22T06:13:33;15.50;99.90
51500;DHT22;39101;53.478;6.158;2022-07-22T06:15:59;15.60;99.90
51500;DHT22;39101;53.478;6.158;2022-07-22T06:18:26;15.50;99.90
51500;DHT22;39101;53.478;6.158;2022-07-22T06:20:52;15.60;99.90
51500;DHT22;39101;53.478;6.158;2022-07-22T06:23:17;15.60;99.90
51500;DHT22;39101;53.478;6.158;2022-07-22T06:25:43;15.60;99.90
51500;DHT22;39101;53.478;6.158;2022-07-22T06:28:10;15.60;99.90
51500;DHT22;39101;53.478;6.158;2022-07-22T06:30:36;15.60;99.90
51500;DHT22;39101;53.478;6.158;2022-07-22T06:33:02;15.60;99.90
51500;DHT22;39101;53.478;6.158;2022-07-22T06:35:28;15.70;99.90
51500;DHT22;39101;53.478;6.158;2022-07-22T06:37:54;15.60;99.90
51500;DHT22;39101;53.478;6.158;2022-07-22T06:40:20;15.70;99.90
51500;DHT22;39101;53.478;6.158;2022-07-22T06:42:45;15.70;99.90
51500;DHT22;39101;53.478;6.158;2022-07-22T06:45:11;15.70;99.90
51500;DHT22;39101;53.478;6.158;2022-07-22T06:47:37;15.70;99.90
51500;DHT22;39101;53.478;6.158;2022-07-22T06:50:04;15.70;99.90
51500;DHT22;39101;53.478;6.158;2022-07-22T06:52:30;15.70;99.90
51500;DHT22;39101;53.478;6.158;2022-07-22T06:54:56;15.70;99.90
51500;DHT22;39101;53.478;6.158;2022-07-22T06:57:22;15.70;99.90
51500;DHT22;39101;53.478;6.158;2022-07-22T06:59:47;15.70;99.90
51500;DHT22;39101;53.478;6.158;2022-07-22T07:02:13;15.70;99.90
51500;DHT22;39101;53.478;6.158;2022-07-22T07:04:39;15.70;99.90
51500;DHT22;39101;53.478;6.158;2022-07-22T07:07:05;15.70;99.90
51500;DHT22;39101;53.478;6.158;2022-07-22T07:09:30;15.70;99.90
51500;DHT22;39101;53.478;6.158;2022-07-22T07:11:56;15.70;99.90
51500;DHT22;39101;53.478;6.158;2022-07-22T07:14:21;15.70;99.90
51500;DHT22;39101;53.478;6.158;2022-07-22T07:16:47;15.70;99.90
51500;DHT22;39101;53.478;6.158;2022-07-22T07:19:13;15.70;99.90
51500;DHT22;39101;53.478;6.158;2022-07-22T07:21:38;15.80;99.90
51500;DHT22;39101;53.478;6.158;2022-07-22T07:24:04;15.80;99.90
51500;DHT22;39101;53.478;6.158;2022-07-22T07:26:30;15.80;99.90
51500;DHT22;39101;53.478;6.158;2022-07-22T07:28:56;15.80;99.90
51500;DHT22;39101;53.478;6.158;2022-07-22T07:31:22;15.80;99.90
51500;DHT22;39101;53.478;6.158;2022-07-22T07:33:47;15.90;99.90
51500;DHT22;39101;53.478;6.158;2022-07-22T07:36:13;15.90;99.90
51500;DHT22;39101;53.478;6.158;2022-07-22T07:38:39;15.90;99.90
51500;DHT22;39101;53.478;6.158;2022-07-22T07:41:05;15.90;99.90
51500;DHT22;39101;53.478;6.158;2022-07-22T07:43:31;16.00;99.90
51500;DHT22;39101;53.478;6.158;2022-07-22T07:45:56;16.00;99.90
51500;DHT22;39101;53.478;6.158;2022-07-22T07:48:22;15.90;99.90
51500;DHT22;39101;53.478;6.158;2022-07-22T07:50:49;15.90;99.90
51500;DHT22;39101;53.478;6.158;2022-07-22T07:53:15;15.90;99.90
51500;DHT22;39101;53.478;6.158;2022-07-22T07:55:41;15.90;99.90
51500;DHT22;39101;53.478;6.158;2022-07-22T07:58:07;16.00;99.90
51500;DHT22;39101;53.478;6.158;2022-07-22T08:00:33;16.00;99.90
51500;DHT22;39101;53.478;6.158;2022-07-22T08:03:02;16.00;99.90
51500;DHT22;39101;53.478;6.158;2022-07-22T08:05:28;16.00;99.90
51500;DHT22;39101;53.478;6.158;2022-07-22T08:07:53;16.00;99.90
51500;DHT22;39101;53.478;6.158;2022-07-22T08:10:20;16.10;99.90
51500;DHT22;39101;53.478;6.158;2022-07-22T08:12:47;16.10;99.90
51500;DHT22;39101;53.478;6.158;2022-07-22T08:15:12;16.10;99.90
51500;DHT22;39101;53.478;6.158;2022-07-22T08:17:38;16.10;99.90
51500;DHT22;39101;53.478;6.158;2022-07-22T08:20:04;16.20;99.90
51500;DHT22;39101;53.478;6.158;2022-07-22T08:22:31;16.20;99.90
51500;DHT22;39101;53.478;6.158;2022-07-22T08:24:56;16.30;99.90
51500;DHT22;39101;53.478;6.158;2022-07-22T08:27:22;16.30;99.90
51500;DHT22;39101;53.478;6.158;2022-07-22T08:29:48;16.30;99.90
51500;DHT22;39101;53.478;6.158;2022-07-22T08:32:14;16.40;99.90
51500;DHT22;39101;53.478;6.158;2022-07-22T08:34:39;16.40;99.90
51500;DHT22;39101;53.478;6.158;2022-07-22T08:37:05;16.40;99.90
51500;DHT22;39101;53.478;6.158;2022-07-22T08:39:31;16.40;99.90
51500;DHT22;39101;53.478;6.158;2022-07-22T08:41:57;16.40;99.90
51500;DHT22;39101;53.478;6.158;2022-07-22T08:44:23;16.40;99.90
51500;DHT22;39101;53.478;6.158;2022-07-22T08:46:49;16.40;99.90
51500;DHT22;39101;53.478;6.158;2022-07-22T08:49:15;16.40;99.90
51500;DHT22;39101;53.478;6.158;2022-07-22T08:51:42;16.40;99.90
51500;DHT22;39101;53.478;6.158;2022-07-22T08:54:08;16.40;99.90
51500;DHT22;39101;53.478;6.158;2022-07-22T08:56:34;16.40;99.90
51500;DHT22;39101;53.478;6.158;2022-07-22T08:59:00;16.40;99.90
51500;DHT22;39101;53.478;6.158;2022-07-22T09:01:25;16.40;99.90
51500;DHT22;39101;53.478;6.158;2022-07-22T09:03:54;16.40;99.90
51500;DHT22;39101;53.478;6.158;2022-07-22T09:06:23;16.40;99.90
51500;DHT22;39101;53.478;6.158;2022-07-22T09:09:01;16.40;99.90
51500;DHT22;39101;53.478;6.158;2022-07-22T09:11:29;16.50;99.90
51500;DHT22;39101;53.478;6.158;2022-07-22T09:13:56;16.50;99.90
51500;DHT22;39101;53.478;6.158;2022-07-22T09:16:45;16.50;99.90
51500;DHT22;39101;53.478;6.158;2022-07-22T09:19:12;16.50;99.90
51500;DHT22;39101;53.478;6.158;2022-07-22T09:21:40;16.50;99.90
51500;DHT22;39101;53.478;6.158;2022-07-22T09:24:07;16.50;99.90
51500;DHT22;39101;53.478;6.158;2022-07-22T09:26:38;16.60;99.90
51500;DHT22;39101;53.478;6.158;2022-07-22T09:29:05;16.60;99.90
51500;DHT22;39101;53.478;6.158;2022-07-22T09:31:34;16.70;99.90
51500;DHT22;39101;53.478;6.158;2022-07-22T09:34:01;16.70;99.90
51500;DHT22;39101;53.478;6.158;2022-07-22T09:36:27;16.80;99.90
51500;DHT22;39101;53.478;6.158;2022-07-22T09:38:53;16.80;99.90
51500;DHT22;39101;53.478;6.158;2022-07-22T09:41:19;16.80;99.90
51500;DHT22;39101;53.478;6.158;2022-07-22T09:43:46;16.80;99.90
51500;DHT22;39101;53.478;6.158;2022-07-22T09:46:12;16.90;99.90
51500;DHT22;39101;53.478;6.158;2022-07-22T09:48:38;16.90;99.90
51500;DHT22;39101;53.478;6.158;2022-07-22T09:51:05;16.90;99.90
51500;DHT22;39101;53.478;6.158;2022-07-22T09:53:32;16.90;99.90
51500;DHT22;39101;53.478;6.158;2022-07-22T09:55:59;16.90;99.90
51500;DHT22;39101;53.478;6.158;2022-07-22T09:58:26;17.00;99.90
51500;DHT22;39101;53.478;6.158;2022-07-22T10:00:52;17.00;99.90
51500;DHT22;39101;53.478;6.158;2022-07-22T10:03:26;17.00;99.90
51500;DHT22;39101;53.478;6.158;2022-07-22T10:05:52;17.00;99.90
51500;DHT22;39101;53.478;6.158;2022-07-22T10:08:19;17.00;99.90
51500;DHT22;39101;53.478;6.158;2022-07-22T10:10:45;17.00;99.90
51500;DHT22;39101;53.478;6.158;2022-07-22T10:13:11;17.00;99.90
51500;DHT22;39101;53.478;6.158;2022-07-22T10:15:37;17.00;99.90
51500;DHT22;39101;53.478;6.158;2022-07-22T10:18:17;17.10;99.90
51500;DHT22;39101;53.478;6.158;2022-07-22T10:20:45;17.10;99.90
51500;DHT22;39101;53.478;6.158;2022-07-22T10:23:12;17.20;99.90
51500;DHT22;39101;53.478;6.158;2022-07-22T10:25:55;17.20;99.90
51500;DHT22;39101;53.478;6.158;2022-07-22T10:31:18;17.20;99.90
51500;DHT22;39101;53.478;6.158;2022-07-22T10:33:45;17.20;99.90
51500;DHT22;39101;53.478;6.158;2022-07-22T10:36:11;17.20;99.90
51500;DHT22;39101;53.478;6.158;2022-07-22T10:38:37;17.30;99.90
51500;DHT22;39101;53.478;6.158;2022-07-22T10:41:06;17.40;99.90
51500;DHT22;39101;53.478;6.158;2022-07-22T10:43:46;17.30;99.90
51500;DHT22;39101;53.478;6.158;2022-07-22T10:46:13;17.30;99.90
51500;DHT22;39101;53.478;6.158;2022-07-22T10:51:19;17.20;99.90
51500;DHT22;39101;53.478;6.158;2022-07-22T10:58:58;17.20;99.90
51500;DHT22;39101;53.478;6.158;2022-07-22T11:01:27;17.10;99.90
51500;DHT22;39101;53.478;6.158;2022-07-22T11:03:53;17.10;99.90
51500;DHT22;39101;53.478;6.158;2022-07-22T11:08:50;17.00;99.90
51500;DHT22;39101;53.478;6.158;2022-07-22T11:11:23;17.00;99.90
51500;DHT22;39101;53.478;6.158;2022-07-22T11:13:56;17.00;99.90
51500;DHT22;39101;53.478;6.158;2022-07-22T11:16:25;17.00;99.90
51500;DHT22;39101;53.478;6.158;2022-07-22T11:18:56;16.90;99.90
51500;DHT22;39101;53.478;6.158;2022-07-22T11:21:24;16.90;99.90
51500;DHT22;39101;53.478;6.158;2022-07-22T11:23:52;16.90;99.90
51500;DHT22;39101;53.478;6.158;2022-07-22T11:26:25;16.90;99.90
51500;DHT22;39101;53.478;6.158;2022-07-22T11:28:51;16.90;99.90
51500;DHT22;39101;53.478;6.158;2022-07-22T11:31:18;16.80;99.90
51500;DHT22;39101;53.478;6.158;2022-07-22T11:33:45;16.80;99.90
51500;DHT22;39101;53.478;6.158;2022-07-22T11:36:11;16.80;99.90
51500;DHT22;39101;53.478;6.158;2022-07-22T11:38:55;16.80;99.90
51500;DHT22;39101;53.478;6.158;2022-07-22T11:41:21;16.90;99.90
51500;DHT22;39101;53.478;6.158;2022-07-22T11:43:48;16.90;99.90
51500;DHT22;39101;53.478;6.158;2022-07-22T11:46:16;16.90;99.90
51500;DHT22;39101;53.478;6.158;2022-07-22T11:48:48;16.90;99.90
51500;DHT22;39101;53.478;6.158;2022-07-22T11:51:17;16.90;99.90
51500;DHT22;39101;53.478;6.158;2022-07-22T11:53:43;17.00;99.90
51500;DHT22;39101;53.478;6.158;2022-07-22T11:56:09;17.00;99.90
51500;DHT22;39101;53.478;6.158;2022-07-22T12:01:05;17.10;99.90
51500;DHT22;39101;53.478;6.158;2022-07-22T12:03:33;17.20;99.90
51500;DHT22;39101;53.478;6.158;2022-07-22T12:06:01;17.20;99.90
51500;DHT22;39101;53.478;6.158;2022-07-22T12:08:27;17.20;99.90
51500;DHT22;39101;53.478;6.158;2022-07-22T12:10:56;17.30;99.90
51500;DHT22;39101;53.478;6.158;2022-07-22T12:13:28;17.30;99.90
51500;DHT22;39101;53.478;6.158;2022-07-22T12:15:54;17.30;99.90
51500;DHT22;39101;53.478;6.158;2022-07-22T12:18:21;17.30;99.90
51500;DHT22;39101;53.478;6.158;2022-07-22T12:20:48;17.30;99.90
51500;DHT22;39101;53.478;6.158;2022-07-22T12:23:17;17.40;99.90
51500;DHT22;39101;53.478;6.158;2022-07-22T12:25:54;17.40;99.90
51500;DHT22;39101;53.478;6.158;2022-07-22T12:28:20;17.50;99.90
51500;DHT22;39101;53.478;6.158;2022-07-22T12:30:46;17.50;99.90
51500;DHT22;39101;53.478;6.158;2022-07-22T12:33:16;17.40;99.90
51500;DHT22;39101;53.478;6.158;2022-07-22T12:35:42;17.40;99.90
51500;DHT22;39101;53.478;6.158;2022-07-22T12:38:09;17.40;99.90
51500;DHT22;39101;53.478;6.158;2022-07-22T12:40:35;17.40;99.90
51500;DHT22;39101;53.478;6.158;2022-07-22T12:43:04;17.40;99.90
51500;DHT22;39101;53.478;6.158;2022-07-22T12:45:31;17.50;99.90
51500;DHT22;39101;53.478;6.158;2022-07-22T12:48:06;17.40;99.90
51500;DHT22;39101;53.478;6.158;2022-07-22T12:53:10;17.30;99.90
51500;DHT22;39101;53.478;6.158;2022-07-22T12:55:41;17.30;99.90
51500;DHT22;39101;53.478;6.158;2022-07-22T12:58:08;17.20;99.90
51500;DHT22;39101;53.478;6.158;2022-07-22T13:00:42;17.20;99.90
51500;DHT22;39101;53.478;6.158;2022-07-22T13:03:08;17.20;99.90
51500;DHT22;39101;53.478;6.158;2022-07-22T13:05:37;17.30;99.90
51500;DHT22;39101;53.478;6.158;2022-07-22T13:08:03;17.30;99.90
51500;DHT22;39101;53.478;6.158;2022-07-22T13:10:29;17.30;99.90
51500;DHT22;39101;53.478;6.158;2022-07-22T13:12:55;17.30;99.90
51500;DHT22;39101;53.478;6.158;2022-07-22T13:15:22;17.40;99.90
51500;DHT22;39101;53.478;6.158;2022-07-22T13:17:49;17.40;99.90
51500;DHT22;39101;53.478;6.158;2022-07-22T13:20:16;17.40;99.90
51500;DHT22;39101;53.478;6.158;2022-07-22T13:22:47;17.50;99.90
51500;DHT22;39101;53.478;6.158;2022-07-22T13:25:13;17.50;99.90
51500;DHT22;39101;53.478;6.158;2022-07-22T13:27:40;17.50;99.90
51500;DHT22;39101;53.478;6.158;2022-07-22T13:30:06;17.40;99.90
51500;DHT22;39101;53.478;6.158;2022-07-22T13:32:32;17.30;99.90
51500;DHT22;39101;53.478;6.158;2022-07-22T13:34:58;17.30;99.90
51500;DHT22;39101;53.478;6.158;2022-07-22T13:37:24;17.30;99.90
51500;DHT22;39101;53.478;6.158;2022-07-22T13:39:50;17.30;99.90
51500;DHT22;39101;53.478;6.158;2022-07-22T13:42:16;17.40;99.90
51500;DHT22;39101;53.478;6.158;2022-07-22T13:44:47;17.30;99.90
51500;DHT22;39101;53.478;6.158;2022-07-22T13:47:13;17.30;99.90
51500;DHT22;39101;53.478;6.158;2022-07-22T13:49:40;17.30;99.90
51500;DHT22;39101;53.478;6.158;2022-07-22T13:52:06;17.30;99.90
51500;DHT22;39101;53.478;6.158;2022-07-22T13:54:32;17.30;99.90
51500;DHT22;39101;53.478;6.158;2022-07-22T13:57:03;17.40;99.90
51500;DHT22;39101;53.478;6.158;2022-07-22T13:59:29;17.40;99.90
51500;DHT22;39101;53.478;6.158;2022-07-22T14:01:56;17.40;99.90
51500;DHT22;39101;53.478;6.158;2022-07-22T14:04:22;17.50;99.90
51500;DHT22;39101;53.478;6.158;2022-07-22T14:06:48;17.60;99.90
51500;DHT22;39101;53.478;6.158;2022-07-22T14:09:13;17.60;99.90
51500;DHT22;39101;53.478;6.158;2022-07-22T14:11:39;17.60;99.90
51500;DHT22;39101;53.478;6.158;2022-07-22T14:14:05;17.50;99.90
51500;DHT22;39101;53.478;6.158;2022-07-22T14:16:32;17.50;99.90
51500;DHT22;39101;53.478;6.158;2022-07-22T14:19:03;17.50;99.90
51500;DHT22;39101;53.478;6.158;2022-07-22T14:21:29;17.50;99.90
51500;DHT22;39101;53.478;6.158;2022-07-22T14:23:55;17.50;99.90
51500;DHT22;39101;53.478;6.158;2022-07-22T14:26:21;17.50;99.90
51500;DHT22;39101;53.478;6.158;2022-07-22T14:28:47;17.40;99.90
51500;DHT22;39101;53.478;6.158;2022-07-22T14:31:13;17.40;99.90
51500;DHT22;39101;53.478;6.158;2022-07-22T14:33:38;17.50;99.90
51500;DHT22;39101;53.478;6.158;2022-07-22T14:36:04;17.40;99.90
51500;DHT22;39101;53.478;6.158;2022-07-22T14:38:30;17.40;99.90
51500;DHT22;39101;53.478;6.158;2022-07-22T14:40:56;17.40;99.90
51500;DHT22;39101;53.478;6.158;2022-07-22T14:43:21;17.50;99.90
51500;DHT22;39101;53.478;6.158;2022-07-22T14:45:47;17.50;99.90
51500;DHT22;39101;53.478;6.158;2022-07-22T14:48:13;17.50;99.90
51500;DHT22;39101;53.478;6.158;2022-07-22T14:50:38;17.40;99.90
51500;DHT22;39101;53.478;6.158;2022-07-22T14:53:04;17.40;99.90
51500;DHT22;39101;53.478;6.158;2022-07-22T14:55:30;17.40;99.90
51500;DHT22;39101;53.478;6.158;2022-07-22T14:57:55;17.40;99.90
51500;DHT22;39101;53.478;6.158;2022-07-22T15:00:21;17.40;99.90
51500;DHT22;39101;53.478;6.158;2022-07-22T15:02:47;17.30;99.90
51500;DHT22;39101;53.478;6.158;2022-07-22T15:05:13;17.30;99.90
51500;DHT22;39101;53.478;6.158;2022-07-22T15:07:38;17.30;99.90
51500;DHT22;39101;53.478;6.158;2022-07-22T15:10:06;17.40;99.90
51500;DHT22;39101;53.478;6.158;2022-07-22T15:12:32;17.40;99.90
51500;DHT22;39101;53.478;6.158;2022-07-22T15:14:58;17.40;99.90
51500;DHT22;39101;53.478;6.158;2022-07-22T15:17:24;17.20;99.90
51500;DHT22;39101;53.478;6.158;2022-07-22T15:19:50;17.20;99.90
51500;DHT22;39101;53.478;6.158;2022-07-22T15:22:15;17.20;99.90
51500;DHT22;39101;53.478;6.158;2022-07-22T15:24:41;17.20;99.90
51500;DHT22;39101;53.478;6.158;2022-07-22T15:27:07;17.10;99.90
51500;DHT22;39101;53.478;6.158;2022-07-22T15:29:33;17.10;99.90
51500;DHT22;39101;53.478;6.158;2022-07-22T15:31:59;17.10;99.90
51500;DHT22;39101;53.478;6.158;2022-07-22T15:34:24;17.10;99.90
51500;DHT22;39101;53.478;6.158;2022-07-22T15:36:50;17.10;99.90
51500;DHT22;39101;53.478;6.158;2022-07-22T15:39:15;17.10;99.90
51500;DHT22;39101;53.478;6.158;2022-07-22T15:41:41;17.00;99.90
51500;DHT22;39101;53.478;6.158;2022-07-22T15:44:08;17.00;99.90